Time;durP1;ratioP1;P1;durP2;ratioP2;P2;SDS_P1;SDS_P2;PMS_P1;PMS_P2;Temp;Humidity;BMP_temperature;BMP_pressure;BME280_temperature;BME280_humidity;BME280_pressure;Samples;Min_cycle;Max_cycle;Signal;HPM_P1;HPM_P2
2022/09/10 00:00:53;;;;;;;21.50;6.68;;;;;;;13.98;100.00;100839.53;5113783;28;20031;-76
2022/09/10 00:03:18;;;;;;;16.00;6.53;;;;;;;14.01;100.00;100841.09;5111405;28;20102;-76
2022/09/10 00:05:47;;;;;;;13.85;6.60;;;;;;;14.02;100.00;100837.47;5111927;28;20118;-76
2022/09/10 00:08:13;;;;;;;16.90;7.22;;;;;;;14.04;100.00;100840.81;5111708;28;20509;-76
2022/09/10 00:10:45;;;;;;;14.90;6.68;;;;;;;14.07;100.00;100840.53;5110884;28;20030;-76
2022/09/10 00:13:12;;;;;;;12.77;6.23;;;;;;;14.06;100.00;100829.13;5111032;28;20023;-76
2022/09/10 00:15:45;;;;;;;15.13;6.45;;;;;;;14.04;100.00;100838.19;5111538;28;20028;-76
2022/09/10 00:18:12;;;;;;;13.55;5.65;;;;;;;14.06;100.00;100836.22;5109021;28;20054;-76
2022/09/10 00:20:42;;;;;;;12.30;6.13;;;;;;;14.04;100.00;100832.88;5111392;28;20031;-76
2022/09/10 00:23:08;;;;;;;14.95;6.20;;;;;;;14.04;100.00;100836.38;5105356;28;20642;-76
2022/09/10 00:25:33;;;;;;;14.80;5.88;;;;;;;14.03;100.00;100831.22;5093718;28;20020;-76
2022/09/10 00:27:59;;;;;;;11.40;5.85;;;;;;;14.02;100.00;100832.19;5093773;28;20019;-76
2022/09/10 00:30:26;;;;;;;16.83;6.28;;;;;;;14.04;100.00;100830.25;5109758;28;20023;-76
2022/09/10 00:32:52;;;;;;;16.40;6.43;;;;;;;14.02;100.00;100832.19;5109212;28;20024;-76
2022/09/10 00:35:18;;;;;;;14.43;6.25;;;;;;;14.00;100.00;100834.09;5109151;28;20630;-76
2022/09/10 00:37:45;;;;;;;15.57;6.65;;;;;;;14.01;100.00;100836.63;5110091;28;20144;-81
2022/09/10 00:40:11;;;;;;;14.13;6.18;;;;;;;14.01;100.00;100833.16;5107729;28;20019;-81
2022/09/10 00:42:36;;;;;;;13.55;6.47;;;;;;;14.02;100.00;100826.91;5110367;28;20027;-82
2022/09/10 00:45:03;;;;;;;19.48;6.93;;;;;;;14.00;100.00;100834.09;5111254;28;20040;-81
2022/09/10 00:47:34;;;;;;;13.00;6.45;;;;;;;14.00;100.00;100834.09;5109022;28;20767;-76
2022/09/10 00:50:18;;;;;;;15.43;7.18;;;;;;;14.03;100.00;100828.56;5109812;28;20027;-82
2022/09/10 00:52:44;;;;;;;16.77;7.18;;;;;;;14.00;100.00;100828.81;5106295;28;20030;-81
2022/09/10 00:55:11;;;;;;;17.30;7.45;;;;;;;13.99;100.00;100827.13;5107091;28;20028;-81
2022/09/10 00:57:37;;;;;;;23.75;8.35;;;;;;;14.03;100.00;100828.56;5111519;28;20020;-76
2022/09/10 01:00:10;;;;;;;16.50;8.02;;;;;;;14.04;100.00;100835.53;5110375;28;20093;-76
2022/09/10 01:02:36;;;;;;;15.85;7.68;;;;;;;14.03;100.00;100839.16;5110731;28;20092;-76
2022/09/10 01:05:03;;;;;;;15.68;8.15;;;;;;;14.05;100.00;100842.50;5112671;28;20417;-76
2022/09/10 01:07:29;;;;;;;17.20;8.02;;;;;;;14.08;100.00;100837.75;5110031;28;20076;-75
2022/09/10 01:09:57;;;;;;;18.42;8.98;;;;;;;14.11;100.00;100847.25;5104498;28;20069;-76
2022/09/10 01:12:53;;;;;;;19.90;8.15;;;;;;;14.13;100.00;100844.44;5101541;28;20028;-76
2022/09/10 01:15:39;;;;;;;15.77;8.70;;;;;;;14.15;100.00;100848.63;5108222;28;20032;-75
2022/09/10 01:18:25;;;;;;;18.92;9.20;;;;;;;14.18;100.00;100843.06;5090422;28;20581;-75
2022/09/10 01:20:59;;;;;;;17.88;8.75;;;;;;;14.18;100.00;100847.53;5089620;28;20032;-76
2022/09/10 01:23:24;;;;;;;17.77;8.90;;;;;;;14.20;100.00;100843.75;5091465;28;20028;-81
2022/09/10 01:26:09;;;;;;;17.23;8.73;;;;;;;14.24;100.00;100852.25;5090837;28;20050;-75
2022/09/10 01:28:49;;;;;;;20.80;9.60;;;;;;;14.25;100.00;100843.34;5099765;28;20081;-76
2022/09/10 01:31:28;;;;;;;18.27;9.30;;;;;;;14.28;100.00;100841.25;5108548;28;20042;-76
2022/09/10 01:34:09;;;;;;;15.60;8.48;;;;;;;14.29;100.00;100850.88;5107473;28;20453;-76
2022/09/10 01:36:39;;;;;;;19.00;9.55;;;;;;;14.28;100.00;100843.91;5109796;28;20034;-76
2022/09/10 01:39:05;;;;;;;16.67;8.52;;;;;;;14.29;100.00;100840.28;5110616;28;20012;-76
2022/09/10 01:41:30;;;;;;;18.60;9.30;;;;;;;14.33;100.00;100843.50;5109686;28;20027;-76
2022/09/10 01:43:56;;;;;;;16.80;9.77;;;;;;;14.31;100.00;100838.34;5110255;28;20040;-76
2022/09/10 01:46:48;;;;;;;15.57;9.13;;;;;;;14.34;100.00;100843.34;5108913;28;20042;-76
2022/09/10 01:49:52;;;;;;;16.58;9.43;;;;;;;14.31;100.00;100838.34;5109038;28;20019;-76
2022/09/10 01:52:25;;;;;;;26.63;10.55;;;;;;;14.34;100.00;100843.34;5009740;28;20113;-76
2022/09/10 01:55:21;;;;;;;19.98;9.95;;;;;;;14.36;100.00;100837.91;5011728;28;20033;-76
2022/09/10 01:57:54;;;;;;;19.33;10.57;;;;;;;14.36;100.00;100837.91;5077947;28;20076;-76
2022/09/10 02:00:21;;;;;;;22.50;10.25;;;;;;;14.36;100.00;100837.91;5091830;28;20452;-81
2022/09/10 02:03:01;;;;;;;17.75;10.18;;;;;;;14.37;100.00;100836.94;5108124;28;20028;-81
2022/09/10 02:05:30;;;;;;;24.33;10.45;;;;;;;14.37;100.00;100842.25;5097780;28;20032;-76
2022/09/10 02:08:02;;;;;;;19.83;10.07;;;;;;;14.38;100.00;100834.16;5109550;28;20023;-76
2022/09/10 02:10:28;;;;;;;19.50;10.50;;;;;;;14.41;100.00;100833.09;5109705;28;20015;-76
2022/09/10 02:12:53;;;;;;;22.92;10.63;;;;;;;14.40;100.00;100834.84;5111311;28;20084;-76
2022/09/10 02:15:21;;;;;;;18.00;9.98;;;;;;;14.40;100.00;100828.72;5109196;28;20027;-75
2022/09/10 02:17:48;;;;;;;21.77;11.18;;;;;;;14.40;100.00;100826.91;5110366;28;20027;-75
2022/09/10 02:20:14;;;;;;;18.83;10.80;;;;;;;14.40;100.00;100831.38;5110123;28;20526;-77
2022/09/10 02:22:48;;;;;;;21.40;10.88;;;;;;;14.40;100.00;100823.44;5110755;28;20023;-76
2022/09/10 02:25:13;;;;;;;26.80;11.65;;;;;;;14.43;100.00;100822.38;5105093;28;20027;-75
2022/09/10 02:27:39;;;;;;;24.25;11.85;;;;;;;14.43;100.00;100825.03;5097014;28;20028;-76
2022/09/10 02:30:05;;;;;;;23.70;11.55;;;;;;;14.44;100.00;100824.06;5107497;28;20483;-76
2022/09/10 02:32:31;;;;;;;20.58;11.90;;;;;;;14.44;100.00;100821.41;5104428;28;20333;-77
2022/09/10 02:34:56;;;;;;;22.55;10.50;;;;;;;14.44;100.00;100821.41;5109173;28;20053;-77
2022/09/10 02:37:23;;;;;;;20.58;11.07;;;;;;;14.45;100.00;100818.63;5107875;28;20034;-77
2022/09/10 02:39:49;;;;;;;25.98;11.65;;;;;;;14.45;100.00;100815.13;5099725;28;20031;-77
2022/09/10 02:42:16;;;;;;;23.23;11.57;;;;;;;14.44;100.00;100816.13;5086934;28;20468;-77
2022/09/10 02:44:42;;;;;;;19.80;11.43;;;;;;;14.45;100.00;100812.50;5101995;28;20093;-77
2022/09/10 02:47:07;;;;;;;20.52;11.52;;;;;;;14.46;100.00;100816.81;5107983;28;20487;-77
2022/09/10 02:49:33;;;;;;;19.83;11.50;;;;;;;14.45;100.00;100818.63;5107534;28;20357;-78
2022/09/10 02:52:01;;;;;;;22.25;12.05;;;;;;;14.47;100.00;100826.41;5107107;28;20102;-82
2022/09/10 02:54:28;;;;;;;19.58;11.85;;;;;;;14.45;100.00;100817.78;5108514;28;20083;-82
2022/09/10 02:56:53;;;;;;;20.25;12.40;;;;;;;14.47;100.00;100818.47;5108739;28;20024;-82
2022/09/10 02:59:19;;;;;;;24.38;12.63;;;;;;;14.47;100.00;100814.03;5106165;28;20030;-82
2022/09/10 03:01:44;;;;;;;23.55;12.43;;;;;;;14.47;100.00;100816.66;5108075;28;20514;-81
2022/09/10 03:04:10;;;;;;;21.02;12.20;;;;;;;14.49;100.00;100824.47;5108010;28;20030;-82
2022/09/10 03:06:35;;;;;;;18.58;12.43;;;;;;;14.49;100.00;100819.19;5106530;28;20024;-82
2022/09/10 03:09:01;;;;;;;18.05;12.27;;;;;;;14.48;100.00;100822.81;5107694;28;20108;-76
2022/09/10 03:11:26;;;;;;;22.48;12.77;;;;;;;14.49;100.00;100825.31;5109461;28;20038;-76
2022/09/10 03:13:52;;;;;;;20.33;13.13;;;;;;;14.51;100.00;100822.53;5109509;28;20024;-76
2022/09/10 03:16:18;;;;;;;20.27;12.75;;;;;;;14.54;100.00;100830.19;5109549;28;20031;-76
2022/09/10 03:18:44;;;;;;;23.42;13.73;;;;;;;14.51;100.00;100817.22;5110180;28;20043;-76
2022/09/10 03:21:14;;;;;;;22.52;13.25;;;;;;;14.51;100.00;100826.00;5106794;28;20098;-83
2022/09/10 03:23:49;;;;;;;22.80;13.52;;;;;;;14.54;100.00;100822.25;5110123;28;20051;-82
2022/09/10 03:26:16;;;;;;;19.20;13.77;;;;;;;14.56;100.00;100820.28;5108493;28;20483;-77
2022/09/10 03:28:43;;;;;;;24.65;14.13;;;;;;;14.56;100.00;100817.63;5107332;28;20042;-77
2022/09/10 03:31:12;;;;;;;24.40;14.05;;;;;;;14.55;100.00;100815.97;5107051;28;20022;-77
2022/09/10 03:33:39;;;;;;;29.85;15.02;;;;;;;14.55;100.00;100818.63;5108456;28;20019;-77
2022/09/10 03:36:06;;;;;;;25.13;15.57;;;;;;;14.56;100.00;100820.28;5106231;28;20023;-77
2022/09/10 03:38:31;;;;;;;28.60;16.63;;;;;;;14.58;100.00;100813.03;5106348;28;20119;-76
2022/09/10 03:40:57;;;;;;;27.17;16.00;;;;;;;14.59;100.00;100820.00;5093866;28;20108;-76
2022/09/10 03:43:23;;;;;;;23.92;16.20;;;;;;;14.57;100.00;100814.84;5107723;28;20499;-82
2022/09/10 03:45:49;;;;;;;22.00;15.55;;;;;;;14.59;100.00;100810.25;5101757;28;20357;-82
2022/09/10 03:48:16;;;;;;;27.52;16.02;;;;;;;14.58;100.00;100810.38;5086879;28;20054;-76
2022/09/10 03:50:43;;;;;;;27.00;16.70;;;;;;;14.59;100.00;100817.34;5086430;28;20074;-76
2022/09/10 03:53:09;;;;;;;22.60;16.38;;;;;;;14.59;100.00;100815.53;5088077;28;20480;-83
2022/09/10 03:55:35;;;;;;;27.33;17.33;;;;;;;14.61;100.00;100808.28;5085949;28;20068;-82
2022/09/10 03:58:00;;;;;;;26.08;16.65;;;;;;;14.61;100.00;100807.47;5099748;28;20425;-83
2022/09/10 04:00:26;;;;;;;28.17;17.85;;;;;;;14.60;100.00;100808.44;5104010;28;20023;-83
2022/09/10 04:02:52;;;;;;;25.40;16.23;;;;;;;14.60;100.00;100803.13;5086385;28;20114;-83
2022/09/10 04:05:18;;;;;;;25.95;16.27;;;;;;;14.60;100.00;100808.44;5107703;28;20391;-83
2022/09/10 04:07:43;;;;;;;28.52;16.88;;;;;;;14.60;100.00;100803.97;5109278;28;20027;-76
2022/09/10 04:10:08;;;;;;;26.67;17.50;;;;;;;14.60;100.00;100801.31;5108667;28;20069;-76
2022/09/10 04:12:35;;;;;;;23.20;16.02;;;;;;;14.61;100.00;100802.16;5107390;28;20035;-76
2022/09/10 04:15:03;;;;;;;24.08;16.30;;;;;;;14.63;100.00;100802.84;5111538;28;20084;-76
2022/09/10 04:17:28;;;;;;;23.45;16.60;;;;;;;14.61;100.00;100800.34;5110214;28;20436;-75
2022/09/10 04:19:54;;;;;;;19.23;15.07;;;;;;;14.65;100.00;100795.59;5113020;28;20103;-75
2022/09/10 04:22:19;;;;;;;28.70;17.48;;;;;;;14.63;100.00;100805.50;5111827;28;20028;-75
2022/09/10 04:24:44;;;;;;;28.63;17.55;;;;;;;14.64;100.00;100801.88;5112023;28;20031;-76
2022/09/10 04:27:10;;;;;;;29.08;17.08;;;;;;;14.63;100.00;100797.56;5110528;28;20020;-76
2022/09/10 04:29:36;;;;;;;29.52;16.70;;;;;;;14.63;100.00;100795.75;5112648;28;20024;-76
2022/09/10 04:32:02;;;;;;;28.23;17.83;;;;;;;14.61;100.00;100789.75;5110779;28;20016;-75
2022/09/10 04:34:27;;;;;;;24.75;16.60;;;;;;;14.61;100.00;100792.41;5109182;28;20030;-75
2022/09/10 04:36:53;;;;;;;26.90;16.92;;;;;;;14.62;100.00;100794.06;5103435;28;20411;-75
2022/09/10 04:39:18;;;;;;;26.77;18.10;;;;;;;14.60;100.00;100797.84;5088059;28;20081;-75
2022/09/10 04:41:44;;;;;;;26.17;17.75;;;;;;;14.61;100.00;100796.88;5090671;28;20028;-76
2022/09/10 04:44:09;;;;;;;26.48;17.85;;;;;;;14.61;100.00;100802.16;5089060;28;20062;-75
2022/09/10 04:46:35;;;;;;;25.25;17.42;;;;;;;14.60;100.00;100801.31;5089675;28;20020;-75
2022/09/10 04:49:00;;;;;;;25.52;17.77;;;;;;;14.61;100.00;100803.00;5093925;28;20016;-75
2022/09/10 04:51:26;;;;;;;28.60;17.27;;;;;;;14.62;100.00;100806.47;5107484;28;20027;-75
2022/09/10 04:53:51;;;;;;;31.67;17.77;;;;;;;14.60;100.00;100800.50;5109700;28;20072;-76
2022/09/10 04:56:18;;;;;;;26.65;17.58;;;;;;;14.61;100.00;100804.81;5105244;28;20055;-75
2022/09/10 04:58:44;;;;;;;25.23;17.55;;;;;;;14.60;100.00;100806.63;5094614;28;20132;-76
2022/09/10 05:01:13;;;;;;;26.33;17.70;;;;;;;14.62;100.00;100814.44;5108645;28;20476;-75
2022/09/10 05:03:38;;;;;;;26.63;17.60;;;;;;;14.63;100.00;100809.00;5103916;28;20361;-76
2022/09/10 05:06:04;;;;;;;26.00;18.15;;;;;;;14.62;100.00;100807.31;5109346;28;20027;-75
2022/09/10 05:08:30;;;;;;;25.02;18.55;;;;;;;14.65;100.00;100808.84;5110186;27;20031;-75
2022/09/10 05:11:01;;;;;;;30.60;18.48;;;;;;;14.63;100.00;100810.78;5110735;28;20019;-76
2022/09/10 05:13:27;;;;;;;24.73;18.63;;;;;;;14.64;100.00;100812.47;5109031;28;20020;-76
2022/09/10 05:15:53;;;;;;;28.08;19.33;;;;;;;14.66;100.00;100810.50;5110439;28;20073;-76
2022/09/10 05:18:18;;;;;;;29.05;19.05;;;;;;;14.67;100.00;100802.44;5109408;28;20020;-76
2022/09/10 05:20:43;;;;;;;25.73;18.92;;;;;;;14.65;100.00;100806.19;5109800;28;20028;-76
2022/09/10 05:23:12;;;;;;;32.15;19.92;;;;;;;14.67;100.00;100812.19;5111522;28;20099;-76
2022/09/10 05:25:38;;;;;;;29.70;20.95;;;;;;;14.68;100.00;100813.84;5109959;28;20036;-76
2022/09/10 05:28:04;;;;;;;29.35;21.95;;;;;;;14.67;100.00;100814.84;5104543;28;20030;-75
2022/09/10 05:30:31;;;;;;;29.92;21.17;;;;;;;14.68;100.00;100808.56;5092033;28;20053;-75
2022/09/10 05:32:58;;;;;;;28.17;21.15;;;;;;;14.69;100.00;100810.22;5093633;28;20352;-75
2022/09/10 05:35:23;;;;;;;34.15;22.13;;;;;;;14.71;100.00;100808.28;5109555;28;20418;-76
2022/09/10 05:37:48;;;;;;;25.92;21.95;;;;;;;14.70;100.00;100810.09;5111291;27;20076;-76
2022/09/10 05:40:14;;;;;;;30.52;22.48;;;;;;;14.74;100.00;100818.59;5109196;28;20034;-77
2022/09/10 05:42:40;;;;;;;28.13;22.40;;;;;;;14.75;100.00;100809.66;5110351;28;20356;-77
2022/09/10 05:45:06;;;;;;;32.70;23.05;;;;;;;14.76;100.00;100810.50;5110597;28;20020;-76
2022/09/10 05:47:33;;;;;;;34.63;22.40;;;;;;;14.77;100.00;100813.00;5109957;28;20468;-77
2022/09/10 05:49:58;;;;;;;33.33;24.40;;;;;;;14.81;100.00;100810.91;5104701;28;20028;-77
2022/09/10 05:52:25;;;;;;;31.48;23.80;;;;;;;14.83;100.00;100819.56;5109911;28;20158;-78
2022/09/10 05:54:50;;;;;;;29.30;23.88;;;;;;;14.81;100.00;100809.13;5107849;28;20023;-77
2022/09/10 05:57:15;;;;;;;35.10;24.48;;;;;;;14.84;100.00;100815.94;5093100;28;20047;-77
2022/09/10 05:59:41;;;;;;;31.08;24.10;;;;;;;14.82;100.00;100804.66;5089267;28;20384;-78
2022/09/10 06:02:06;;;;;;;30.48;23.45;;;;;;;14.83;100.00;100812.47;5103457;28;20480;-77
2022/09/10 06:04:31;;;;;;;32.60;23.42;;;;;;;14.82;100.00;100821.41;5107716;28;20464;-77
2022/09/10 06:06:56;;;;;;;29.65;23.77;;;;;;;14.82;100.00;100815.25;5109260;28;20084;-77
2022/09/10 06:09:22;;;;;;;29.52;23.63;;;;;;;14.84;100.00;100811.50;5107704;28;20055;-76
2022/09/10 06:11:48;;;;;;;30.00;24.27;;;;;;;14.83;100.00;100807.16;5108706;28;20016;-77
2022/09/10 06:14:14;;;;;;;26.67;22.83;;;;;;;14.84;100.00;100800.06;5102164;28;20039;-83
2022/09/10 06:16:40;;;;;;;30.23;23.42;;;;;;;14.84;100.00;100816.78;5108411;28;20043;-77
2022/09/10 06:19:05;;;;;;;31.25;24.60;;;;;;;14.84;100.00;100813.31;5108268;28;20012;-77
2022/09/10 06:21:31;;;;;;;29.17;23.83;;;;;;;14.85;100.00;100810.50;5109414;28;20141;-83
2022/09/10 06:23:56;;;;;;;27.45;24.13;;;;;;;14.84;100.00;100818.59;5108466;28;20020;-77
2022/09/10 06:26:22;;;;;;;30.10;24.52;;;;;;;14.85;100.00;100821.09;5109322;28;20204;-75
2022/09/10 06:28:50;;;;;;;30.38;25.45;;;;;;;14.85;100.00;100823.75;5108759;28;20022;-77
2022/09/10 06:31:16;;;;;;;35.10;25.25;;;;;;;14.87;100.00;100821.81;5094435;28;20024;-83
2022/09/10 06:33:43;;;;;;;32.88;25.15;;;;;;;14.87;100.00;100827.09;5110109;28;20039;-84
2022/09/10 06:36:08;;;;;;;29.73;25.88;;;;;;;14.88;100.00;100834.06;5109612;28;20149;-77
2022/09/10 06:38:35;;;;;;;31.30;25.98;;;;;;;14.88;100.00;100831.41;5109189;28;20101;-84
2022/09/10 06:41:04;;;;;;;33.67;26.80;;;;;;;14.86;100.00;100833.38;5108981;28;20019;-81
2022/09/10 06:43:35;;;;;;;34.10;26.23;;;;;;;14.85;100.00;100836.16;5109898;28;20575;-77
2022/09/10 06:46:04;;;;;;;33.28;26.80;;;;;;;14.83;100.00;100833.66;5109422;28;20129;-76
2022/09/10 06:48:30;;;;;;;32.22;27.17;;;;;;;14.84;100.00;100830.03;5109939;28;20023;-81
2022/09/10 06:50:59;;;;;;;33.45;26.80;;;;;;;14.87;100.00;100835.03;5108804;28;20419;-82
2022/09/10 06:53:27;;;;;;;32.13;27.58;;;;;;;14.85;100.00;100834.34;5107930;28;20372;-84
2022/09/10 06:55:53;;;;;;;29.10;25.90;;;;;;;14.87;100.00;100835.03;5109416;28;20387;-78
2022/09/10 06:58:22;;;;;;;35.40;26.27;;;;;;;14.88;100.00;100836.72;5107957;28;20019;-78
2022/09/10 07:00:48;;;;;;;35.08;27.73;;;;;;;14.92;100.00;100838.09;5108832;28;20027;-85
2022/09/10 07:03:15;;;;;;;33.55;27.58;;;;;;;14.95;100.00;100836.97;5108128;28;20511;-75
2022/09/10 07:05:41;;;;;;;29.92;26.58;;;;;;;14.98;100.00;100826.94;5107977;28;20027;-75
2022/09/10 07:08:07;;;;;;;34.15;26.80;;;;;;;15.00;100.00;100835.56;5101381;28;20054;-76
2022/09/10 07:10:32;;;;;;;31.92;26.13;;;;;;;15.01;100.00;100839.91;5105630;28;20019;-76
2022/09/10 07:12:59;;;;;;;25.80;22.95;;;;;;;15.00;100.00;100848.81;5107312;28;20031;-76
2022/09/10 07:15:26;;;;;;;25.05;22.35;;;;;;;15.00;100.00;100835.56;5108345;28;20031;-76
2022/09/10 07:17:52;;;;;;;25.25;22.00;;;;;;;15.01;100.00;100850.50;5108971;28;20696;-78
2022/09/10 07:20:18;;;;;;;24.88;22.30;;;;;;;15.01;100.00;100841.72;5107503;28;20015;-75
2022/09/10 07:22:43;;;;;;;25.83;23.08;;;;;;;14.99;100.00;100852.44;5105056;28;20074;-75
2022/09/10 07:25:08;;;;;;;26.02;23.27;;;;;;;14.99;100.00;100860.41;5108402;28;20031;-75
2022/09/10 07:27:34;;;;;;;25.88;23.23;;;;;;;14.98;100.00;100856.09;5106345;28;20041;-75
2022/09/10 07:29:59;;;;;;;25.98;23.20;;;;;;;14.98;100.00;100855.25;5102257;28;20028;-75
2022/09/10 07:32:24;;;;;;;25.95;23.15;;;;;;;15.02;100.00;100856.63;5108364;28;20107;-75
2022/09/10 07:34:51;;;;;;;24.95;22.35;;;;;;;15.02;100.00;100860.13;5107378;28;20041;-75
2022/09/10 07:37:16;;;;;;;26.80;23.33;;;;;;;15.11;100.00;100857.59;5108273;28;20047;-76
2022/09/10 07:39:41;;;;;;;27.08;24.20;;;;;;;15.16;100.00;100858.81;5103611;28;20094;-77
2022/09/10 07:42:08;;;;;;;26.67;23.27;;;;;;;15.24;100.00;100858.97;5106256;28;20372;-76
2022/09/10 07:44:33;;;;;;;26.63;24.02;;;;;;;15.29;100.00;100866.50;5106935;28;20054;-77
2022/09/10 07:47:00;;;;;;;26.50;23.73;;;;;;;15.35;100.00;100855.31;5109321;28;20027;-77
2022/09/10 07:49:26;;;;;;;26.85;24.08;;;;;;;15.40;100.00;100852.22;5109569;28;20046;-77
2022/09/10 07:51:53;;;;;;;26.30;23.70;;;;;;;15.45;100.00;100857.91;5093065;28;20107;-77
2022/09/10 07:54:18;;;;;;;26.42;23.73;;;;;;;15.49;100.00;100859.31;5110767;28;20031;-77
2022/09/10 07:56:44;;;;;;;26.45;24.05;;;;;;;15.49;100.00;100860.13;5108867;28;20112;-75
2022/09/10 07:59:10;;;;;;;27.40;24.65;;;;;;;15.56;100.00;100863.88;5103758;28;20483;-75
2022/09/10 08:01:36;;;;;;;29.08;25.98;;;;;;;15.59;100.00;100873.38;5110814;28;20802;-75
2022/09/10 08:04:02;;;;;;;26.83;24.23;;;;;;;15.63;100.00;100869.50;5106934;28;20024;-76
2022/09/10 08:06:27;;;;;;;26.20;23.45;;;;;;;15.64;100.00;100877.31;5102108;28;20039;-82
2022/09/10 08:08:53;;;;;;;26.45;23.80;;;;;;;15.66;100.00;100880.66;5101490;28;20033;-84
2022/09/10 08:11:19;;;;;;;27.90;24.90;;;;;;;15.76;100.00;100885.06;5095932;28;20379;-75
2022/09/10 08:13:49;;;;;;;26.35;23.73;;;;;;;15.82;100.00;100881.84;5108426;28;20123;-83
2022/09/10 08:16:17;;;;;;;27.02;24.23;;;;;;;15.84;100.00;100888.66;5109094;28;20069;-76
2022/09/10 08:18:44;;;;;;;25.58;23.05;;;;;;;15.83;100.00;100888.81;5111765;28;20035;-75
2022/09/10 08:21:12;;;;;;;25.00;22.63;;;;;;;15.82;100.00;100895.09;5110240;27;20475;-76
2022/09/10 08:23:40;;;;;;;25.83;23.45;;;;;;;15.92;100.00;100895.88;5092968;28;20020;-76
2022/09/10 08:26:07;;;;;;;25.08;22.48;;;;;;;15.95;100.00;100898.25;5109774;28;20106;-75
2022/09/10 08:28:33;;;;;;;25.23;22.52;;;;;;;15.97;100.00;100898.94;5109950;28;20020;-75
2022/09/10 08:31:07;;;;;;;24.67;22.33;;;;;;;15.99;100.00;100904.91;5109174;28;20114;-75
2022/09/10 08:33:37;;;;;;;24.38;21.98;;;;;;;16.09;100.00;100910.22;5097408;28;20019;-76
2022/09/10 08:36:04;;;;;;;21.63;19.42;;;;;;;16.14;100.00;100911.44;5111987;28;20391;-84
2022/09/10 08:38:39;;;;;;;20.85;18.88;;;;;;;16.22;100.00;100914.19;5111425;27;20030;-76
2022/09/10 08:41:41;;;;;;;19.08;17.27;;;;;;;16.26;100.00;100915.56;5110246;28;20019;-83
2022/09/10 08:44:35;;;;;;;19.27;17.27;;;;;;;16.29;100.00;100919.72;5092587;28;20492;-75
2022/09/10 08:47:04;;;;;;;18.52;16.92;;;;;;;16.27;100.00;100927.00;5092093;28;20030;-75
2022/09/10 08:49:35;;;;;;;18.60;16.65;;;;;;;16.27;100.00;100927.84;5098704;28;20035;-75
2022/09/10 08:52:33;;;;;;;17.52;15.82;;;;;;;16.26;100.00;100931.47;5110122;28;20031;-75
2022/09/10 08:55:16;;;;;;;16.83;14.93;;;;;;;16.22;100.00;100929.28;5101958;28;20047;-76
2022/09/10 08:57:47;;;;;;;17.55;15.60;;;;;;;16.18;100.00;100934.03;5089357;28;20035;-76
2022/09/10 09:00:25;;;;;;;17.00;15.40;;;;;;;16.17;100.00;100934.19;5094586;28;20023;-76
2022/09/10 09:02:58;;;;;;;17.10;15.40;;;;;;;16.07;100.00;100947.53;5109484;28;20048;-75
2022/09/10 09:05:27;;;;;;;17.85;15.77;;;;;;;16.03;100.00;100945.31;5108833;28;20558;-76
2022/09/10 09:07:57;;;;;;;17.30;15.48;;;;;;;16.04;100.00;100946.97;5111262;28;20536;-76
2022/09/10 09:10:40;;;;;;;19.10;15.93;;;;;;;16.03;100.00;100940.00;5110316;28;20487;-85
2022/09/10 09:13:31;;;;;;;21.90;16.90;;;;;;;16.04;100.00;100945.16;5104626;28;20046;-75
2022/09/10 09:16:02;;;;;;;22.67;18.85;;;;;;;16.06;100.00;100940.53;5109000;28;20020;-73
2022/09/10 09:18:36;;;;;;;19.75;17.63;;;;;;;16.10;100.00;100947.22;5107662;28;20514;-75
2022/09/10 09:21:15;;;;;;;20.67;18.58;;;;;;;16.16;100.00;100946.63;5109863;27;20035;-75
2022/09/10 09:23:54;;;;;;;21.08;18.92;;;;;;;16.26;100.00;100947.41;5110605;28;20356;-83
2022/09/10 09:26:24;;;;;;;23.35;19.40;;;;;;;16.33;100.00;100947.66;5108171;28;20027;-86
2022/09/10 09:29:01;;;;;;;20.92;18.80;;;;;;;16.40;100.00;100947.88;5110707;28;20028;-75
2022/09/10 09:31:41;;;;;;;19.42;17.40;;;;;;;16.44;100.00;100954.59;5099747;28;20112;-75
2022/09/10 09:34:20;;;;;;;19.33;17.33;;;;;;;16.44;100.00;100954.59;5109419;28;20062;-75
2022/09/10 09:36:50;;;;;;;18.98;17.00;;;;;;;16.50;100.00;100951.34;5107130;28;20035;-75
2022/09/10 09:39:22;;;;;;;18.95;17.05;;;;;;;16.61;100.00;100951.13;5109345;28;20348;-75
2022/09/10 09:42:02;;;;;;;17.50;15.95;;;;;;;16.69;100.00;100953.06;5118297;27;20035;-75
2022/09/10 09:44:48;;;;;;;18.50;16.60;;;;;;;16.85;100.00;100954.09;5106182;28;20119;-83
2022/09/10 09:47:13;;;;;;;17.73;15.88;;;;;;;16.90;100.00;100959.78;5105444;28;20011;-83
2022/09/10 09:49:39;;;;;;;17.77;15.88;;;;;;;16.91;100.00;100956.13;5106851;28;20016;-75
2022/09/10 09:52:21;;;;;;;17.40;14.63;;;;;;;16.91;100.00;100961.44;5109313;28;20023;-75
2022/09/10 09:54:57;;;;;;;16.60;14.90;;;;;;;16.86;100.00;100961.06;5109238;28;20027;-76
2022/09/10 09:57:23;;;;;;;16.88;14.05;;;;;;;16.87;100.00;100957.41;5109713;28;20027;-76
2022/09/10 09:59:50;;;;;;;34.80;22.88;;;;;;;16.83;100.00;100961.38;5110503;28;20020;-76
2022/09/10 10:02:24;;;;;;;15.50;13.85;;;;;;;16.79;100.00;100957.31;5108602;28;20027;-76
2022/09/10 10:05:08;;;;;;;18.95;14.65;;;;;;;16.78;100.00;100949.50;5111289;28;20070;-76
2022/09/10 10:07:37;;;;;;;17.35;14.05;;;;;;;16.80;100.00;100944.88;5110531;28;20020;-76
2022/09/10 10:10:06;;;;;;;18.38;16.35;;;;;;;16.84;100.00;100947.09;5108645;28;20020;-83
2022/09/10 10:12:33;;;;;;;17.30;13.18;;;;;;;16.79;100.00;100953.81;5109641;28;20023;-84
2022/09/10 10:14:59;;;;;;;16.40;13.38;;;;;;;16.81;100.00;100962.47;5110095;28;20395;-83
2022/09/10 10:17:35;;;;;;;14.73;13.18;;;;;;;16.90;100.00;100972.22;5109407;28;20023;-83
2022/09/10 10:20:14;;;;;;;14.82;12.88;;;;;;;16.98;100.00;100979.44;5107257;28;20053;-76
2022/09/10 10:22:47;;;;;;;15.88;13.60;;;;;;;17.10;100.00;100963.09;5108254;28;20028;-76
2022/09/10 10:25:40;;;;;;;17.38;13.45;;;;;;;17.28;100.00;100968.41;5108949;28;20027;-76
2022/09/10 10:28:34;;;;;;;14.75;12.98;;;;;;;17.43;100.00;100968.69;5107664;28;21045;-76
2022/09/10 10:31:00;;;;;;;13.98;12.48;;;;;;;17.51;100.00;100969.59;5104984;28;20396;-84
2022/09/10 10:33:32;;;;;;;13.30;11.60;;;;;;;17.50;100.00;100965.25;5102824;28;20025;-84
2022/09/10 10:36:12;;;;;;;13.75;12.27;;;;;;;17.51;100.00;100972.25;5108076;28;20027;-75
2022/09/10 10:38:41;;;;;;;14.80;11.02;;;;;;;17.47;100.00;100978.88;5089610;28;20549;-76
2022/09/10 10:41:10;;;;;;;12.75;11.48;;;;;;;17.42;100.00;100973.19;5087310;28;20441;-76
2022/09/10 10:43:54;;;;;;;14.70;10.90;;;;;;;17.46;100.00;100974.53;5100750;28;20075;-76
2022/09/10 10:46:24;;;;;;;10.85;9.20;;;;;;;17.49;100.00;100982.19;5107479;28;20503;-77
2022/09/10 10:49:16;;;;;;;10.85;9.13;;;;;;;17.55;100.00;100984.25;5109749;28;20031;-84
2022/09/10 10:51:51;;;;;;;12.48;9.25;;;;;;;17.55;100.00;100984.25;5106548;28;20494;-75
2022/09/10 10:54:28;;;;;;;10.45;8.20;;;;;;;17.52;100.00;100991.69;5093988;28;20044;-76
2022/09/10 10:57:10;;;;;;;11.85;8.85;;;;;;;17.49;100.00;100995.50;5108362;28;20023;-76
2022/09/10 11:00:01;;;;;;;13.30;8.70;;;;;;;17.49;100.00;100998.16;5098141;28;20024;-75
2022/09/10 11:02:38;;;;;;;13.55;8.68;;;;;;;17.43;100.00;100993.47;5107237;28;20028;-76
2022/09/10 11:05:25;;;;;;;11.80;7.50;;;;;;;17.41;100.00;100994.63;5106606;28;20059;-75
2022/09/10 11:07:53;;;;;;;16.10;8.15;;;;;;;17.30;100.00;100990.38;5108963;28;20096;-77
2022/09/10 11:10:27;;;;;;;16.27;7.80;;;;;;;17.26;100.00;100993.50;5108073;28;20027;-77
2022/09/10 11:13:20;;;;;;;16.27;9.68;;;;;;;17.16;100.00;100977.59;5091442;28;20024;-77
2022/09/10 11:16:01;;;;;;;14.57;8.95;;;;;;;17.09;100.00;100990.66;5089663;28;20032;-84